Time;durP1;ratioP1;P1;durP2;ratioP2;P2;SDS_P1;SDS_P2;PMS_P1;PMS_P2;Temp;Humidity;BMP_temperature;BMP_pressure;BME280_temperature;BME280_humidity;BME280_pressure;Samples;Min_cycle;Max_cycle;Signal;HPM_P1;HPM_P2
2022/04/02 00:00:53;;;;;;;;;1.00;0.00;;;;;;;;5079212;28;8892;-76
2022/04/02 00:03:19;;;;;;;;;0.00;0.00;;;;;;;;5078620;28;8793;-75
2022/04/02 00:05:45;;;;;;;;;1.00;0.00;;;;;;;;5078834;28;8773;-76
2022/04/02 00:08:10;;;;;;;;;0.33;0.00;;;;;;;;5078123;28;8880;-76
2022/04/02 00:10:35;;;;;;;;;0.33;0.00;;;;;;;;5078183;28;8849;-76
2022/04/02 00:13:01;;;;;;;;;0.00;0.00;;;;;;;;5079277;28;8958;-76
2022/04/02 00:15:26;;;;;;;;;0.00;0.00;;;;;;;;5078848;28;8782;-76
2022/04/02 00:17:52;;;;;;;;;0.00;0.00;;;;;;;;5079074;28;8774;-75
2022/04/02 00:20:17;;;;;;;;;0.00;0.00;;;;;;;;5077107;28;8818;-75
2022/04/02 00:23:35;;;;;;;;;4.00;0.00;;;;;;;;5078790;28;8921;-76
2022/04/02 00:25:28;;;;;;;;;0.00;0.00;;;;;;;;5077934;28;8805;-75
2022/04/02 00:27:54;;;;;;;;;1.00;0.00;;;;;;;;5078530;28;8777;-76
2022/04/02 00:30:19;;;;;;;;;0.00;0.00;;;;;;;;5076885;28;8846;-75
2022/04/02 00:32:44;;;;;;;;;0.00;0.00;;;;;;;;5076621;28;9550;-74
2022/04/02 00:35:09;;;;;;;;;1.00;0.00;;;;;;;;5077785;28;8840;-75
2022/04/02 00:37:35;;;;;;;;;0.00;0.00;;;;;;;;5077919;28;8859;-75
2022/04/02 00:40:01;;;;;;;;;4.00;0.00;;;;;;;;5078381;28;8925;-75
2022/04/02 00:42:26;;;;;;;;;0.00;0.00;;;;;;;;5079002;28;8797;-76
2022/04/02 00:44:52;;;;;;;;;0.00;0.00;;;;;;;;5078387;28;8866;-76
2022/04/02 00:47:17;;;;;;;;;0.33;0.00;;;;;;;;5079045;28;8812;-75
2022/04/02 00:49:43;;;;;;;;;0.00;0.00;;;;;;;;5078525;28;8867;-75
2022/04/02 00:52:08;;;;;;;;;1.00;0.00;;;;;;;;5077795;28;8932;-76
2022/04/02 00:54:34;;;;;;;;;0.00;0.00;;;;;;;;5078090;28;8838;-76
2022/04/02 00:57:00;;;;;;;;;0.00;0.00;;;;;;;;5077732;28;8778;-76
2022/04/02 00:59:25;;;;;;;;;0.00;0.00;;;;;;;;5079095;28;9451;-77
2022/04/02 01:01:50;;;;;;;;;0.00;0.00;;;;;;;;5078630;28;8773;-76
2022/04/02 01:04:15;;;;;;;;;0.00;0.00;;;;;;;;5078712;28;8964;-76
2022/04/02 01:06:42;;;;;;;;;0.00;0.00;;;;;;;;5077187;28;8868;-76
2022/04/02 01:09:09;;;;;;;;;1.67;0.00;;;;;;;;5078661;28;8786;-75
2022/04/02 01:11:38;;;;;;;;;0.00;0.00;;;;;;;;5079559;28;10561;-76
2022/04/02 01:14:04;;;;;;;;;0.00;0.00;;;;;;;;5081730;28;10082;-77
2022/04/02 01:16:30;;;;;;;;;0.00;0.00;;;;;;;;5081581;28;8777;-75
2022/04/02 01:18:55;;;;;;;;;0.00;0.00;;;;;;;;5082271;28;8839;-77
2022/04/02 01:21:20;;;;;;;;;0.00;0.00;;;;;;;;5081867;28;8801;-76
2022/04/02 01:23:46;;;;;;;;;2.00;0.00;;;;;;;;5081545;28;8837;-77
2022/04/02 01:26:11;;;;;;;;;0.00;0.00;;;;;;;;5082512;28;8797;-77
2022/04/02 01:28:36;;;;;;;;;0.00;0.00;;;;;;;;5082851;28;9625;-76
2022/04/02 01:31:05;;;;;;;;;0.00;0.00;;;;;;;;5082347;28;8777;-76
2022/04/02 01:33:31;;;;;;;;;0.00;0.00;;;;;;;;5081444;28;8809;-77
2022/04/02 01:35:57;;;;;;;;;0.00;0.00;;;;;;;;5082057;28;8802;-76
2022/04/02 01:38:23;;;;;;;;;0.00;0.00;;;;;;;;5081542;28;8786;-76
2022/04/02 01:40:48;;;;;;;;;1.00;0.00;;;;;;;;5081473;28;8808;-76
2022/04/02 01:43:13;;;;;;;;;1.00;0.67;;;;;;;;5081475;28;8818;-76
2022/04/02 01:45:38;;;;;;;;;0.00;0.00;;;;;;;;5081088;28;8786;-77
2022/04/02 01:48:04;;;;;;;;;0.00;0.00;;;;;;;;5081249;28;11519;-76
2022/04/02 01:50:29;;;;;;;;;1.00;1.00;;;;;;;;5081286;28;8816;-76
2022/04/02 01:52:55;;;;;;;;;0.00;0.00;;;;;;;;5080539;28;9750;-76
2022/04/02 01:55:20;;;;;;;;;0.00;0.00;;;;;;;;5078998;28;10949;-77
2022/04/02 01:57:45;;;;;;;;;2.00;0.00;;;;;;;;5080665;28;8939;-77
2022/04/02 02:00:11;;;;;;;;;2.00;0.00;;;;;;;;5081266;28;8782;-78
2022/04/02 02:02:37;;;;;;;;;0.67;0.67;;;;;;;;5079789;28;8832;-77
2022/04/02 02:05:02;;;;;;;;;0.00;0.00;;;;;;;;5081406;28;11776;-77
2022/04/02 02:07:27;;;;;;;;;0.00;0.00;;;;;;;;5081066;28;8863;-77
2022/04/02 02:09:57;;;;;;;;;2.00;1.00;;;;;;;;5081021;28;8790;-77
2022/04/02 02:12:22;;;;;;;;;0.00;0.00;;;;;;;;5080898;28;8839;-77
2022/04/02 02:14:48;;;;;;;;;0.00;0.00;;;;;;;;5080836;28;8798;-78
2022/04/02 02:17:15;;;;;;;;;0.00;0.00;;;;;;;;5081074;28;8769;-78
2022/04/02 02:19:40;;;;;;;;;0.00;0.00;;;;;;;;5081282;28;8833;-77
2022/04/02 02:22:06;;;;;;;;;0.00;0.00;;;;;;;;5080915;28;8814;-77
2022/04/02 02:24:32;;;;;;;;;0.00;0.00;;;;;;;;5081183;28;8769;-77
2022/04/02 02:26:57;;;;;;;;;0.67;0.00;;;;;;;;5080762;28;8758;-77
2022/04/02 02:29:23;;;;;;;;;0.00;0.00;;;;;;;;5080395;28;9547;-77
2022/04/02 02:31:48;;;;;;;;;0.00;0.00;;;;;;;;5080782;28;8793;-77
2022/04/02 02:36:57;;;;;;;;;0.00;0.00;;;;;;;;5080107;28;8888;-78
2022/04/02 02:39:22;;;;;;;;;0.33;0.33;;;;;;;;5080956;28;8951;-76
2022/04/02 02:41:48;;;;;;;;;2.00;0.00;;;;;;;;5080320;28;8848;-78
2022/04/02 02:44:13;;;;;;;;;0.00;0.00;;;;;;;;5080072;28;11317;-77
2022/04/02 02:46:39;;;;;;;;;0.00;0.00;;;;;;;;5080384;28;8876;-78
2022/04/02 02:49:05;;;;;;;;;0.00;0.00;;;;;;;;5080748;28;8801;-77
2022/04/02 02:51:30;;;;;;;;;1.00;1.00;;;;;;;;5080213;28;8928;-77
2022/04/02 02:53:56;;;;;;;;;0.00;0.00;;;;;;;;5080458;28;8836;-77
2022/04/02 02:56:21;;;;;;;;;0.00;0.00;;;;;;;;5078966;28;10607;-78
2022/04/02 02:58:47;;;;;;;;;0.33;0.00;;;;;;;;5078581;28;8809;-78
2022/04/02 03:01:12;;;;;;;;;0.00;0.00;;;;;;;;5080256;28;8778;-77
2022/04/02 03:03:38;;;;;;;;;0.67;0.67;;;;;;;;5078597;28;8987;-77
2022/04/02 03:06:03;;;;;;;;;0.00;0.00;;;;;;;;5078109;28;8805;-79
2022/04/02 03:08:29;;;;;;;;;0.00;0.00;;;;;;;;5079935;28;8774;-80
2022/04/02 03:10:54;;;;;;;;;0.00;0.00;;;;;;;;5078140;28;8829;-79
2022/04/02 03:13:20;;;;;;;;;1.00;0.00;;;;;;;;5080113;28;8806;-79
2022/04/02 03:15:46;;;;;;;;;1.67;0.00;;;;;;;;5078379;28;9546;-79
2022/04/02 03:18:11;;;;;;;;;1.67;1.00;;;;;;;;5080137;28;8781;-79
2022/04/02 03:20:37;;;;;;;;;0.33;0.00;;;;;;;;5077950;28;8846;-79
2022/04/02 03:23:04;;;;;;;;;0.67;0.00;;;;;;;;5079451;28;10653;-80
2022/04/02 03:25:29;;;;;;;;;1.00;0.00;;;;;;;;5080266;28;8742;-80
2022/04/02 03:27:55;;;;;;;;;3.00;0.00;;;;;;;;5080038;28;8804;-79
2022/04/02 03:30:21;;;;;;;;;0.33;0.33;;;;;;;;5079655;28;8773;-80
2022/04/02 03:32:47;;;;;;;;;1.33;1.33;;;;;;;;5078668;28;11498;-81
2022/04/02 03:35:14;;;;;;;;;2.00;1.00;;;;;;;;5079783;28;11702;-75
2022/04/02 03:37:41;;;;;;;;;1.67;0.00;;;;;;;;5079592;28;11617;-77
2022/04/02 03:40:08;;;;;;;;;1.00;0.33;;;;;;;;5079200;28;11481;-84
2022/04/02 03:42:34;;;;;;;;;0.67;0.67;;;;;;;;5078210;28;11449;-81
2022/04/02 03:44:59;;;;;;;;;4.33;1.00;;;;;;;;5083747;28;11480;-82
2022/04/02 03:47:25;;;;;;;;;0.00;0.00;;;;;;;;5082987;28;11273;-81
2022/04/02 03:49:51;;;;;;;;;1.67;1.00;;;;;;;;5079554;28;10312;-82
2022/04/02 03:52:16;;;;;;;;;0.00;0.00;;;;;;;;5078201;28;10588;-80
2022/04/02 03:54:42;;;;;;;;;1.00;0.67;;;;;;;;5076717;28;11451;-79
2022/04/02 03:57:08;;;;;;;;;1.33;0.33;;;;;;;;5077236;28;11447;-79
2022/04/02 03:59:34;;;;;;;;;1.67;0.33;;;;;;;;5078371;28;9542;-79
2022/04/02 04:02:00;;;;;;;;;0.67;0.67;;;;;;;;5078403;28;8774;-81
2022/04/02 04:04:26;;;;;;;;;2.67;0.00;;;;;;;;5079068;28;11362;-80
2022/04/02 04:06:52;;;;;;;;;1.00;1.00;;;;;;;;5078722;28;11486;-78
2022/04/02 04:09:17;;;;;;;;;2.00;1.00;;;;;;;;5078767;28;10254;-78
2022/04/02 04:11:43;;;;;;;;;0.00;0.00;;;;;;;;5079391;28;8892;-79
2022/04/02 04:14:08;;;;;;;;;0.00;0.00;;;;;;;;5078371;28;8912;-78
2022/04/02 04:16:35;;;;;;;;;2.00;2.00;;;;;;;;5078838;28;8797;-78
2022/04/02 04:19:00;;;;;;;;;1.00;1.00;;;;;;;;5078010;28;8781;-79
2022/04/02 04:21:25;;;;;;;;;2.00;1.00;;;;;;;;5077733;28;11540;-79
2022/04/02 04:23:51;;;;;;;;;0.33;0.33;;;;;;;;5078935;28;9553;-78
2022/04/02 04:26:16;;;;;;;;;1.00;1.00;;;;;;;;5078893;28;11291;-79
2022/04/02 04:28:42;;;;;;;;;1.00;1.00;;;;;;;;5078572;28;11515;-80
2022/04/02 04:31:07;;;;;;;;;2.33;1.00;;;;;;;;5079274;28;8769;-79
2022/04/02 04:33:34;;;;;;;;;1.00;1.00;;;;;;;;5111058;28;12630;-80
2022/04/02 04:35:59;;;;;;;;;1.67;1.00;;;;;;;;5078643;28;8851;-80
2022/04/02 04:38:24;;;;;;;;;1.00;1.00;;;;;;;;5078391;28;12262;-79
2022/04/02 04:40:50;;;;;;;;;0.67;0.67;;;;;;;;5078262;28;8867;-81
2022/04/02 04:43:15;;;;;;;;;1.00;0.67;;;;;;;;5078301;28;11743;-80
2022/04/02 04:45:40;;;;;;;;;3.67;1.33;;;;;;;;5080632;28;8952;-79
2022/04/02 04:48:06;;;;;;;;;1.67;1.00;;;;;;;;5081362;28;12557;-80
2022/04/02 04:50:32;;;;;;;;;1.00;1.00;;;;;;;;5082204;28;11716;-80
2022/04/02 04:52:57;;;;;;;;;2.00;1.00;;;;;;;;5081609;28;8802;-81
2022/04/02 04:55:23;;;;;;;;;2.33;2.00;;;;;;;;5081984;28;11463;-80
2022/04/02 04:57:48;;;;;;;;;2.33;2.00;;;;;;;;5113848;27;9800;-81
2022/04/02 05:00:15;;;;;;;;;1.00;1.00;;;;;;;;5081905;28;8848;-80
2022/04/02 05:02:42;;;;;;;;;1.33;1.33;;;;;;;;5080398;28;10572;-79
2022/04/02 05:05:08;;;;;;;;;2.00;1.00;;;;;;;;5080788;28;11487;-78
2022/04/02 05:07:33;;;;;;;;;0.00;0.00;;;;;;;;5078840;28;11558;-82
2022/04/02 05:09:58;;;;;;;;;1.00;1.00;;;;;;;;5081406;28;8929;-82
2022/04/02 05:12:24;;;;;;;;;0.00;0.00;;;;;;;;5083111;28;9530;-81
2022/04/02 05:14:49;;;;;;;;;0.00;0.00;;;;;;;;5080328;28;8805;-75
2022/04/02 05:17:16;;;;;;;;;0.00;0.00;;;;;;;;5079983;28;8789;-74
2022/04/02 05:19:41;;;;;;;;;0.00;0.00;;;;;;;;5080035;28;8789;-76
2022/04/02 05:22:06;;;;;;;;;1.00;1.00;;;;;;;;5080160;28;8844;-80
2022/04/02 05:24:32;;;;;;;;;0.33;0.33;;;;;;;;5079920;28;8910;-79
2022/04/02 05:26:58;;;;;;;;;1.00;1.00;;;;;;;;5079152;28;11384;-78
2022/04/02 05:29:23;;;;;;;;;1.00;1.00;;;;;;;;5078897;28;11432;-87
2022/04/02 05:31:48;;;;;;;;;1.67;0.00;;;;;;;;5075817;28;8813;-80
2022/04/02 05:34:14;;;;;;;;;0.00;0.00;;;;;;;;5079495;28;9430;-80
2022/04/02 05:36:41;;;;;;;;;1.00;0.67;;;;;;;;5078749;28;8793;-80
2022/04/02 05:39:06;;;;;;;;;0.00;0.00;;;;;;;;5078322;28;11569;-79
2022/04/02 05:41:32;;;;;;;;;0.00;0.00;;;;;;;;5079502;28;11483;-78
2022/04/02 05:43:57;;;;;;;;;0.67;0.67;;;;;;;;5079011;28;8832;-80
2022/04/02 05:46:22;;;;;;;;;0.00;0.00;;;;;;;;5077672;28;8782;-78
2022/04/02 05:48:48;;;;;;;;;0.00;0.00;;;;;;;;5072959;28;8789;-87
2022/04/02 05:51:13;;;;;;;;;1.00;1.00;;;;;;;;5073254;28;9676;-79
2022/04/02 05:53:39;;;;;;;;;0.00;0.00;;;;;;;;5080992;28;8790;-75
2022/04/02 05:56:04;;;;;;;;;0.33;0.33;;;;;;;;5080409;28;8817;-76
2022/04/02 05:58:29;;;;;;;;;0.00;0.00;;;;;;;;5078424;28;8806;-74
2022/04/02 06:00:55;;;;;;;;;3.67;3.00;;;;;;;;5079038;28;8805;-76
2022/04/02 06:03:20;;;;;;;;;1.00;1.00;;;;;;;;5080091;28;10859;-76
2022/04/02 06:05:49;;;;;;;;;3.00;1.00;;;;;;;;5065027;28;10253;-76
2022/04/02 06:08:15;;;;;;;;;2.00;2.00;;;;;;;;5059756;28;8790;-75
2022/04/02 06:10:41;;;;;;;;;0.00;0.00;;;;;;;;5072543;28;8800;-75
2022/04/02 06:13:07;;;;;;;;;1.00;1.00;;;;;;;;5058978;28;8883;-74
2022/04/02 06:15:32;;;;;;;;;1.00;1.00;;;;;;;;5070531;28;9542;-76
2022/04/02 06:17:57;;;;;;;;;0.00;0.00;;;;;;;;5076060;28;8947;-74
2022/04/02 06:20:23;;;;;;;;;0.67;0.00;;;;;;;;5078193;28;8801;-75
2022/04/02 06:22:48;;;;;;;;;1.00;1.00;;;;;;;;5078431;28;8805;-74
2022/04/02 06:25:13;;;;;;;;;4.33;4.33;;;;;;;;5071365;28;10913;-74
2022/04/02 06:27:46;;;;;;;;;2.00;1.00;;;;;;;;5067864;28;11367;-75
2022/04/02 06:30:23;;;;;;;;;2.33;2.00;;;;;;;;5069737;28;11382;-75
2022/04/02 06:32:48;;;;;;;;;1.00;1.00;;;;;;;;5068840;28;9565;-75
2022/04/02 06:35:14;;;;;;;;;0.00;0.00;;;;;;;;5071011;28;10394;-73
2022/04/02 06:37:40;;;;;;;;;1.00;1.00;;;;;;;;5074529;28;8817;-73
2022/04/02 06:40:06;;;;;;;;;32.67;28.67;;;;;;;;5068405;28;8834;-72
2022/04/02 06:42:31;;;;;;;;;13.33;11.00;;;;;;;;5058692;28;23106;-74
2022/04/02 06:44:56;;;;;;;;;14.00;14.00;;;;;;;;5059106;28;13460;-74
2022/04/02 06:47:25;;;;;;;;;6.67;6.00;;;;;;;;5059308;28;10658;-73
2022/04/02 06:49:51;;;;;;;;;2.33;1.33;;;;;;;;5059440;28;24015;-75
2022/04/02 08:22:03;;;;;;;;;5.00;3.00;;;;;;;;5132187;27;1581777;-77
2022/04/02 08:24:28;;;;;;;;;5.00;5.00;;;;;;;;5166757;27;21006;-81
2022/04/02 08:27:01;;;;;;;;;3.00;3.00;;;;;;;;5163752;27;8809;-77
2022/04/02 08:29:38;;;;;;;;;2.33;2.00;;;;;;;;5190053;27;8796;-77
2022/04/02 08:32:25;;;;;;;;;6.33;4.33;;;;;;;;5176784;27;12195;-80
2022/04/02 08:34:56;;;;;;;;;7.00;6.00;;;;;;;;5183078;27;11710;-80
2022/04/02 08:37:28;;;;;;;;;5.67;3.00;;;;;;;;5168325;27;13469;-75
2022/04/02 08:39:57;;;;;;;;;5.33;3.00;;;;;;;;5186699;27;10891;-77
2022/04/02 08:42:52;;;;;;;;;5.00;3.00;;;;;;;;5166132;27;9253;-73
2022/04/02 08:45:24;;;;;;;;;2.33;1.33;;;;;;;;5162469;27;8799;-76
2022/04/02 08:48:15;;;;;;;;;5.00;5.00;;;;;;;;5198417;27;11388;-74
2022/04/02 08:50:42;;;;;;;;;1.00;1.00;;;;;;;;5186190;27;11650;-76
2022/04/02 08:53:26;;;;;;;;;5.00;3.00;;;;;;;;5186907;27;8824;-75
2022/04/02 08:56:00;;;;;;;;;2.33;2.33;;;;;;;;5191058;27;8795;-73
2022/04/02 08:58:40;;;;;;;;;5.67;2.00;;;;;;;;5187056;27;11611;-75
2022/04/02 09:01:07;;;;;;;;;2.00;2.00;;;;;;;;5162237;27;13410;-73
2022/04/02 09:03:35;;;;;;;;;0.75;0.75;;;;;;;;5193656;27;11405;-77
2022/04/02 09:06:16;;;;;;;;;2.50;2.00;;;;;;;;5185527;27;11517;-74
2022/04/02 09:09:00;;;;;;;;;2.00;1.75;;;;;;;;5176841;27;11851;-73
2022/04/02 09:11:26;;;;;;;;;1.25;1.25;;;;;;;;5178974;27;11482;-73
2022/04/02 09:14:11;;;;;;;;;0.50;0.50;;;;;;;;5183753;27;11599;-73
2022/04/02 09:16:48;;;;;;;;;1.50;1.50;;;;;;;;5151664;27;13266;-75
2022/04/02 09:19:14;;;;;;;;;4.00;2.00;;;;;;;;5151246;27;11386;-75
2022/04/02 09:21:57;;;;;;;;;1.75;1.50;;;;;;;;5135885;27;13465;-74
2022/04/02 09:24:35;;;;;;;;;1.00;1.00;;;;;;;;5153294;27;12029;-74
2022/04/02 09:27:21;;;;;;;;;2.00;0.50;;;;;;;;5154667;27;10318;-74
2022/04/02 09:30:07;;;;;;;;;0.50;0.50;;;;;;;;5151643;27;11763;-74
2022/04/02 09:32:48;;;;;;;;;2.00;0.75;;;;;;;;5142651;27;9568;-74
2022/04/02 09:35:34;;;;;;;;;0.00;0.00;;;;;;;;5138554;27;11657;-74
2022/04/02 09:38:08;;;;;;;;;0.00;0.00;;;;;;;;5139038;27;11532;-73
2022/04/02 09:40:50;;;;;;;;;1.00;0.00;;;;;;;;5140021;27;9856;-73
2022/04/02 09:43:26;;;;;;;;;1.00;1.00;;;;;;;;5139388;27;10307;-74
2022/04/02 09:46:01;;;;;;;;;2.00;1.00;;;;;;;;5138974;27;10602;-74
2022/04/02 09:48:36;;;;;;;;;1.00;1.00;;;;;;;;5139353;27;10997;-78
2022/04/02 09:51:07;;;;;;;;;3.50;1.25;;;;;;;;5132827;27;11376;-77
2022/04/02 09:53:41;;;;;;;;;1.50;1.00;;;;;;;;5139051;27;11604;-78
2022/04/02 09:56:25;;;;;;;;;1.50;1.25;;;;;;;;5136652;27;12246;-78
2022/04/02 09:58:50;;;;;;;;;2.25;1.50;;;;;;;;5130226;27;11534;-75
2022/04/02 10:01:25;;;;;;;;;9.75;2.50;;;;;;;;5139543;27;11544;-76
2022/04/02 10:04:00;;;;;;;;;1.75;1.00;;;;;;;;5141378;27;9563;-76
2022/04/02 10:06:25;;;;;;;;;3.00;1.50;;;;;;;;5141010;27;12270;-83
2022/04/02 10:08:54;;;;;;;;;2.00;2.00;;;;;;;;5128328;27;11439;-80
2022/04/02 10:11:24;;;;;;;;;0.75;0.75;;;;;;;;5122724;27;11591;-76
2022/04/02 10:13:52;;;;;;;;;3.00;2.25;;;;;;;;5120947;28;11446;-78
2022/04/02 10:16:18;;;;;;;;;1.00;1.00;;;;;;;;5121853;27;11466;-82
2022/04/02 10:18:44;;;;;;;;;1.00;1.00;;;;;;;;5141680;27;11471;-77
2022/04/02 10:21:12;;;;;;;;;1.00;1.00;;;;;;;;5134649;27;11532;-75
2022/04/02 10:23:37;;;;;;;;;1.00;1.00;;;;;;;;5131179;27;8802;-77
2022/04/02 10:26:14;;;;;;;;;1.25;1.25;;;;;;;;5126271;27;11453;-80
2022/04/02 10:29:00;;;;;;;;;2.00;2.00;;;;;;;;5115537;27;10671;-74
2022/04/02 10:31:25;;;;;;;;;3.00;3.00;;;;;;;;5140567;27;11747;-74
2022/04/02 10:33:54;;;;;;;;;1.00;1.00;;;;;;;;5141732;27;11393;-78
2022/04/02 10:36:20;;;;;;;;;1.25;1.25;;;;;;;;5139000;27;8806;-75
2022/04/02 10:38:51;;;;;;;;;3.00;1.75;;;;;;;;5141293;27;11390;-75
2022/04/02 10:41:17;;;;;;;;;1.75;0.75;;;;;;;;5141282;27;11443;-77
2022/04/02 10:43:56;;;;;;;;;0.00;0.00;;;;;;;;5139763;27;12091;-77
2022/04/02 10:46:24;;;;;;;;;1.00;1.00;;;;;;;;5141051;27;11736;-80
2022/04/02 10:48:50;;;;;;;;;1.75;1.75;;;;;;;;5141380;27;12137;-75
2022/04/02 10:51:17;;;;;;;;;2.50;1.75;;;;;;;;5121709;27;11450;-74
2022/04/02 10:53:44;;;;;;;;;6.75;3.75;;;;;;;;5141188;27;8977;-73
2022/04/02 10:56:21;;;;;;;;;2.75;2.50;;;;;;;;5121603;27;12182;-74
2022/04/02 10:58:49;;;;;;;;;5.00;3.50;;;;;;;;5130876;27;11561;-73
2022/04/02 11:01:17;;;;;;;;;9.75;9.75;;;;;;;;5130978;27;12477;-74
2022/04/02 11:03:46;;;;;;;;;13.00;11.75;;;;;;;;5128920;27;11654;-77
2022/04/02 11:06:31;;;;;;;;;2.00;1.00;;;;;;;;5114695;27;23231;-75
2022/04/02 11:08:57;;;;;;;;;1.00;1.00;;;;;;;;5137540;27;22282;-74
2022/04/02 11:11:24;;;;;;;;;1.75;1.75;;;;;;;;5140674;27;11418;-75
2022/04/02 11:14:00;;;;;;;;;1.25;0.75;;;;;;;;5140368;27;9633;-74
2022/04/02 11:16:38;;;;;;;;;1.50;0.00;;;;;;;;5121517;27;11424;-74
2022/04/02 11:21:53;;;;;;;;;0.50;0.50;;;;;;;;5139208;27;11396;-74
2022/04/02 11:24:22;;;;;;;;;1.00;0.00;;;;;;;;5140344;27;11419;-75
2022/04/02 11:26:51;;;;;;;;;0.25;0.25;;;;;;;;5120947;27;13511;-74
2022/04/02 11:29:18;;;;;;;;;11.33;11.33;;;;;;;;5139626;27;12121;-76
2022/04/02 11:31:45;;;;;;;;;0.50;0.00;;;;;;;;5139978;27;22633;-74
2022/04/02 11:34:12;;;;;;;;;0.00;0.00;;;;;;;;5139439;27;25274;-75
2022/04/02 11:36:37;;;;;;;;;2.00;1.00;;;;;;;;5139553;27;11351;-74
2022/04/02 11:39:03;;;;;;;;;0.25;0.00;;;;;;;;5139895;27;11425;-74
2022/04/02 11:41:33;;;;;;;;;0.00;0.00;;;;;;;;5140048;27;10458;-74
2022/04/02 11:44:11;;;;;;;;;0.00;0.00;;;;;;;;5140243;27;8759;-74
2022/04/02 11:47:02;;;;;;;;;0.00;0.00;;;;;;;;5140557;27;11388;-75
2022/04/02 11:49:32;;;;;;;;;4.00;1.00;;;;;;;;5133472;27;11385;-72
2022/04/02 11:52:02;;;;;;;;;1.00;0.00;;;;;;;;5137351;27;11467;-73
2022/04/02 11:54:28;;;;;;;;;1.50;1.00;;;;;;;;5136818;27;11425;-72
2022/04/02 11:57:05;;;;;;;;;1.00;0.00;;;;;;;;5136805;27;11442;-74
2022/04/02 11:59:30;;;;;;;;;0.25;0.00;;;;;;;;5136297;27;9606;-74
2022/04/02 12:01:56;;;;;;;;;0.00;0.00;;;;;;;;5136345;27;12202;-74
2022/04/02 12:04:25;;;;;;;;;0.00;0.00;;;;;;;;5137756;27;8774;-75
2022/04/02 12:06:52;;;;;;;;;0.75;0.75;;;;;;;;5111811;27;11418;-76
2022/04/02 12:09:19;;;;;;;;;3.25;0.00;;;;;;;;5136876;27;11421;-74
2022/04/02 12:11:58;;;;;;;;;0.75;0.75;;;;;;;;5137924;27;11447;-75
2022/04/02 12:14:31;;;;;;;;;1.00;1.00;;;;;;;;5136937;27;11624;-75
2022/04/02 12:17:01;;;;;;;;;0.50;0.50;;;;;;;;5135456;27;11498;-76
2022/04/02 12:19:46;;;;;;;;;0.75;0.00;;;;;;;;5137950;27;11509;-78
2022/04/02 12:22:21;;;;;;;;;3.50;3.50;;;;;;;;5106844;28;11526;-75
2022/04/02 12:24:48;;;;;;;;;11.75;10.50;;;;;;;;5117593;28;12657;-73
2022/04/02 12:27:18;;;;;;;;;9.75;9.75;;;;;;;;5118086;28;22671;-73
2022/04/02 12:29:48;;;;;;;;;10.75;10.75;;;;;;;;5118352;28;22370;-72
2022/04/02 12:32:27;;;;;;;;;9.00;8.75;;;;;;;;5117868;28;22428;-74
2022/04/02 12:35:00;;;;;;;;;53.00;45.00;;;;;;;;5132073;27;22327;-77
2022/04/02 12:37:27;;;;;;;;;5.75;5.75;;;;;;;;5129812;27;23816;-74
2022/04/02 12:39:53;;;;;;;;;2.25;2.25;;;;;;;;5127272;27;22608;-74
2022/04/02 12:42:38;;;;;;;;;1.00;1.00;;;;;;;;5129551;27;12175;-74
2022/04/02 12:45:07;;;;;;;;;0.50;0.50;;;;;;;;5128897;27;11671;-74
2022/04/02 12:47:33;;;;;;;;;0.50;0.50;;;;;;;;5127738;27;11449;-74
2022/04/02 12:50:08;;;;;;;;;0.00;0.00;;;;;;;;5127567;27;11417;-73
2022/04/02 12:52:42;;;;;;;;;1.00;0.00;;;;;;;;5131818;27;11472;-74
2022/04/02 12:55:08;;;;;;;;;0.00;0.00;;;;;;;;5139032;27;11391;-74
2022/04/02 12:57:34;;;;;;;;;1.25;0.00;;;;;;;;5139138;27;12060;-74
2022/04/02 12:59:59;;;;;;;;;0.00;0.00;;;;;;;;5139580;27;9056;-73
2022/04/02 13:02:25;;;;;;;;;0.00;0.00;;;;;;;;5139771;27;11481;-73
2022/04/02 13:04:58;;;;;;;;;0.00;0.00;;;;;;;;5138810;27;8806;-73
2022/04/02 13:07:23;;;;;;;;;0.00;0.00;;;;;;;;5122351;27;8805;-74
2022/04/02 13:09:52;;;;;;;;;1.25;0.00;;;;;;;;5143181;27;11535;-73
2022/04/02 13:12:21;;;;;;;;;1.25;0.00;;;;;;;;5142102;27;9024;-73
2022/04/02 13:14:50;;;;;;;;;1.00;0.00;;;;;;;;5142748;27;11391;-74
2022/04/02 13:17:17;;;;;;;;;0.00;0.00;;;;;;;;5142795;27;11489;-73
2022/04/02 13:22:42;;;;;;;;;1.50;0.00;;;;;;;;5124309;27;11390;-73
2022/04/02 13:25:12;;;;;;;;;0.00;0.00;;;;;;;;5133113;27;11380;-75
2022/04/02 13:27:56;;;;;;;;;0.50;0.50;;;;;;;;5141671;27;11525;-74
2022/04/02 13:30:27;;;;;;;;;0.00;0.00;;;;;;;;5140480;27;11382;-75
2022/04/02 13:33:25;;;;;;;;;0.00;0.00;;;;;;;;5138746;27;11392;-76
2022/04/02 13:36:00;;;;;;;;;0.00;0.00;;;;;;;;5122711;27;11386;-74
2022/04/02 13:38:29;;;;;;;;;0.00;0.00;;;;;;;;5141738;27;11370;-74
2022/04/02 13:40:56;;;;;;;;;1.00;0.75;;;;;;;;5141805;27;11405;-75
2022/04/02 13:43:29;;;;;;;;;0.00;0.00;;;;;;;;5140818;27;11738;-75
2022/04/02 13:45:59;;;;;;;;;0.00;0.00;;;;;;;;5139168;27;11592;-76
2022/04/02 13:48:26;;;;;;;;;0.00;0.00;;;;;;;;5139401;27;11513;-74
2022/04/02 13:51:00;;;;;;;;;0.00;0.00;;;;;;;;5121160;27;11558;-75
2022/04/02 13:53:37;;;;;;;;;0.50;0.50;;;;;;;;5140442;27;11518;-75
2022/04/02 13:56:22;;;;;;;;;0.00;0.00;;;;;;;;5138295;27;11530;-75
2022/04/02 13:58:48;;;;;;;;;2.75;1.00;;;;;;;;5139804;27;11484;-74
2022/04/02 14:01:13;;;;;;;;;1.25;1.00;;;;;;;;5140276;27;11425;-74
2022/04/02 14:03:39;;;;;;;;;1.00;0.50;;;;;;;;5121470;27;11436;-75
2022/04/02 14:06:06;;;;;;;;;1.00;1.00;;;;;;;;5140466;27;10325;-75
2022/04/02 14:08:35;;;;;;;;;0.25;0.00;;;;;;;;5139918;27;9162;-75
2022/04/02 14:11:09;;;;;;;;;0.00;0.00;;;;;;;;5139794;27;11395;-75
2022/04/02 14:13:35;;;;;;;;;0.75;0.75;;;;;;;;5139896;27;12194;-75
2022/04/02 14:16:02;;;;;;;;;1.00;1.00;;;;;;;;5132173;27;11504;-75
2022/04/02 14:18:36;;;;;;;;;0.50;0.50;;;;;;;;5110595;27;12134;-76
2022/04/02 14:21:04;;;;;;;;;1.75;1.00;;;;;;;;5137523;27;11572;-75
2022/04/02 14:23:44;;;;;;;;;1.00;1.00;;;;;;;;5142242;27;11402;-74
2022/04/02 14:26:15;;;;;;;;;1.50;1.50;;;;;;;;5123215;27;11424;-75
2022/04/02 14:28:50;;;;;;;;;2.00;1.75;;;;;;;;5141853;27;11380;-74
2022/04/02 16:04:27;;;;;;;;;1.33;1.00;;;;;;;;5108832;27;1459457;-71
2022/04/02 16:06:53;;;;;;;;;0.67;0.67;;;;;;;;5127191;27;23146;-73
2022/04/02 16:09:18;;;;;;;;;0.00;0.00;;;;;;;;5147184;27;11457;-71
2022/04/02 16:11:44;;;;;;;;;2.67;1.00;;;;;;;;5144653;27;8917;-71
2022/04/02 16:14:10;;;;;;;;;0.00;0.00;;;;;;;;5127210;27;12409;-73
2022/04/02 16:16:49;;;;;;;;;2.00;2.00;;;;;;;;5144719;27;11406;-71
2022/04/02 16:19:34;;;;;;;;;5.00;0.67;;;;;;;;5143920;27;9004;-73
2022/04/02 16:22:06;;;;;;;;;0.00;0.00;;;;;;;;5141963;27;11573;-72
2022/04/02 16:24:32;;;;;;;;;1.00;0.00;;;;;;;;5149074;27;12153;-72
2022/04/02 16:26:58;;;;;;;;;1.00;0.33;;;;;;;;5142997;27;11430;-71
2022/04/02 16:29:24;;;;;;;;;0.00;0.00;;;;;;;;5126687;27;8831;-72
2022/04/02 16:31:52;;;;;;;;;0.00;0.00;;;;;;;;5145480;27;11402;-72
2022/04/02 16:34:27;;;;;;;;;1.00;1.00;;;;;;;;5144407;27;8800;-72
2022/04/02 16:37:04;;;;;;;;;0.00;0.00;;;;;;;;5143759;27;11577;-72
2022/04/02 16:39:37;;;;;;;;;1.00;0.00;;;;;;;;5124166;27;11454;-72
2022/04/02 16:42:04;;;;;;;;;1.00;0.00;;;;;;;;5125191;27;11445;-71
2022/04/02 16:44:30;;;;;;;;;2.67;2.00;;;;;;;;5145271;27;11457;-72
2022/04/02 16:47:01;;;;;;;;;0.67;0.67;;;;;;;;5145789;27;11443;-75
2022/04/02 16:49:27;;;;;;;;;2.00;1.00;;;;;;;;5155610;27;12269;-71
2022/04/02 16:51:59;;;;;;;;;0.25;0.25;;;;;;;;5155960;27;11515;-73
2022/04/02 16:54:25;;;;;;;;;1.33;1.33;;;;;;;;5156493;27;11364;-72
2022/04/02 16:56:50;;;;;;;;;0.00;0.00;;;;;;;;5155628;27;12156;-73
2022/04/02 16:59:16;;;;;;;;;0.00;0.00;;;;;;;;5156328;27;12502;-71
2022/04/02 17:01:42;;;;;;;;;1.00;1.00;;;;;;;;5156189;27;8809;-75
2022/04/02 17:04:16;;;;;;;;;1.00;1.00;;;;;;;;5154989;27;9025;-73
2022/04/02 17:06:41;;;;;;;;;0.33;0.33;;;;;;;;5137165;27;11404;-75
2022/04/02 17:09:08;;;;;;;;;0.00;0.00;;;;;;;;5155754;27;12160;-72
2022/04/02 17:11:39;;;;;;;;;0.33;0.33;;;;;;;;5119506;27;8847;-73
2022/04/02 17:14:05;;;;;;;;;1.00;1.00;;;;;;;;5132549;27;11544;-71
2022/04/02 17:16:38;;;;;;;;;5.00;1.00;;;;;;;;5141336;27;11787;-73
2022/04/02 17:19:22;;;;;;;;;12.00;9.67;;;;;;;;5123043;27;8802;-73
2022/04/02 17:21:53;;;;;;;;;9.00;7.33;;;;;;;;5109534;27;23780;-72
2022/04/02 17:24:21;;;;;;;;;1.33;1.33;;;;;;;;5129450;27;21931;-72
2022/04/02 17:26:46;;;;;;;;;0.00;0.00;;;;;;;;5130393;27;11650;-71
2022/04/02 17:29:24;;;;;;;;;5.00;1.00;;;;;;;;5128603;27;12628;-72
2022/04/02 17:32:04;;;;;;;;;4.67;1.00;;;;;;;;5129027;27;8881;-71
2022/04/02 17:34:41;;;;;;;;;1.00;1.00;;;;;;;;5128454;27;11412;-72
2022/04/02 17:37:07;;;;;;;;;0.00;0.00;;;;;;;;5128659;27;11486;-71
2022/04/02 17:39:36;;;;;;;;;1.00;1.00;;;;;;;;5130382;27;11475;-72
2022/04/02 17:42:05;;;;;;;;;1.67;0.67;;;;;;;;5127797;27;8840;-71
2022/04/02 17:44:30;;;;;;;;;2.00;1.00;;;;;;;;5129022;27;11485;-72
2022/04/02 17:46:57;;;;;;;;;5.00;4.00;;;;;;;;5129867;27;11434;-72
2022/04/02 17:49:32;;;;;;;;;0.00;0.00;;;;;;;;5130565;27;9070;-71
2022/04/02 17:51:58;;;;;;;;;0.75;0.75;;;;;;;;5130053;27;11388;-70
2022/04/02 17:54:41;;;;;;;;;1.00;1.00;;;;;;;;5128622;27;11421;-72
2022/04/02 17:57:06;;;;;;;;;2.00;1.00;;;;;;;;5131096;27;11457;-72
2022/04/02 17:59:31;;;;;;;;;0.00;0.00;;;;;;;;5129203;27;11498;-72
2022/04/02 18:02:00;;;;;;;;;0.00;0.00;;;;;;;;5130036;27;8943;-71
2022/04/02 18:04:26;;;;;;;;;1.33;0.33;;;;;;;;5131133;27;8802;-71
2022/04/02 18:06:53;;;;;;;;;5.67;4.00;;;;;;;;5128852;27;11491;-73
2022/04/02 18:09:19;;;;;;;;;5.00;4.33;;;;;;;;5129466;27;11731;-70